sensor_id;sensor_type;location;lat;lon;timestamp;P1;durP1;ratioP1;P2;durP2;ratioP2
29940;SDS011;16801;53.562;10.038;2023-04-28T00:01:13;7.47;;;4.27;;
29940;SDS011;16801;53.562;10.038;2023-04-28T00:04:34;7.30;;;5.50;;
29940;SDS011;16801;53.562;10.038;2023-04-28T00:07:56;6.30;;;4.07;;
29940;SDS011;16801;53.562;10.038;2023-04-28T00:11:17;6.10;;;4.57;;
29940;SDS011;16801;53.562;10.038;2023-04-28T00:14:38;7.00;;;4.63;;
29940;SDS011;16801;53.562;10.038;2023-04-28T00:18:00;6.20;;;5.20;;
29940;SDS011;16801;53.562;10.038;2023-04-28T00:21:21;7.83;;;6.07;;
29940;SDS011;16801;53.562;10.038;2023-04-28T00:24:43;6.70;;;4.63;;
29940;SDS011;16801;53.562;10.038;2023-04-28T00:28:04;7.37;;;4.27;;
29940;SDS011;16801;53.562;10.038;2023-04-28T00:31:25;7.40;;;6.27;;
29940;SDS011;16801;53.562;10.038;2023-04-28T00:34:46;5.27;;;4.87;;
29940;SDS011;16801;53.562;10.038;2023-04-28T00:38:07;5.90;;;4.57;;
29940;SDS011;16801;53.562;10.038;2023-04-28T00:41:29;8.87;;;5.70;;
29940;SDS011;16801;53.562;10.038;2023-04-28T00:44:50;5.80;;;4.13;;
29940;SDS011;16801;53.562;10.038;2023-04-28T00:48:11;6.27;;;4.50;;
29940;SDS011;16801;53.562;10.038;2023-04-28T00:51:33;5.63;;;5.00;;
29940;SDS011;16801;53.562;10.038;2023-04-28T00:54:54;6.60;;;5.30;;
29940;SDS011;16801;53.562;10.038;2023-04-28T00:58:16;5.13;;;4.50;;
29940;SDS011;16801;53.562;10.038;2023-04-28T01:01:39;5.07;;;3.97;;
29940;SDS011;16801;53.562;10.038;2023-04-28T01:05:00;11.23;;;6.57;;
29940;SDS011;16801;53.562;10.038;2023-04-28T01:08:22;6.80;;;5.13;;
29940;SDS011;16801;53.562;10.038;2023-04-28T01:11:43;4.97;;;4.43;;
29940;SDS011;16801;53.562;10.038;2023-04-28T01:15:14;5.10;;;4.23;;
29940;SDS011;16801;53.562;10.038;2023-04-28T01:18:37;5.07;;;4.57;;
29940;SDS011;16801;53.562;10.038;2023-04-28T01:22:01;6.97;;;4.30;;
29940;SDS011;16801;53.562;10.038;2023-04-28T01:25:24;6.03;;;4.83;;
29940;SDS011;16801;53.562;10.038;2023-04-28T01:28:46;5.37;;;3.13;;
29940;SDS011;16801;53.562;10.038;2023-04-28T01:32:07;8.67;;;5.03;;
29940;SDS011;16801;53.562;10.038;2023-04-28T01:35:28;5.17;;;4.13;;
29940;SDS011;16801;53.562;10.038;2023-04-28T01:38:49;5.10;;;3.93;;
29940;SDS011;16801;53.562;10.038;2023-04-28T01:42:11;5.40;;;4.23;;
29940;SDS011;16801;53.562;10.038;2023-04-28T01:45:32;5.77;;;4.07;;
29940;SDS011;16801;53.562;10.038;2023-04-28T01:48:53;7.07;;;4.73;;
29940;SDS011;16801;53.562;10.038;2023-04-28T01:52:14;8.30;;;5.97;;
29940;SDS011;16801;53.562;10.038;2023-04-28T01:55:38;5.33;;;4.00;;
29940;SDS011;16801;53.562;10.038;2023-04-28T01:59:00;7.53;;;4.73;;
29940;SDS011;16801;53.562;10.038;2023-04-28T02:02:21;5.80;;;4.57;;
29940;SDS011;16801;53.562;10.038;2023-04-28T02:05:43;6.13;;;4.27;;
29940;SDS011;16801;53.562;10.038;2023-04-28T02:09:04;4.80;;;4.13;;
29940;SDS011;16801;53.562;10.038;2023-04-28T02:12:26;5.10;;;4.43;;
29940;SDS011;16801;53.562;10.038;2023-04-28T02:15:48;5.43;;;4.20;;
29940;SDS011;16801;53.562;10.038;2023-04-28T02:19:09;8.10;;;5.17;;
29940;SDS011;16801;53.562;10.038;2023-04-28T02:22:30;3.80;;;3.50;;
29940;SDS011;16801;53.562;10.038;2023-04-28T02:25:59;4.90;;;4.23;;
29940;SDS011;16801;53.562;10.038;2023-04-28T02:29:20;5.57;;;4.97;;
29940;SDS011;16801;53.562;10.038;2023-04-28T02:32:42;5.33;;;4.33;;
29940;SDS011;16801;53.562;10.038;2023-04-28T02:36:03;5.27;;;4.80;;
29940;SDS011;16801;53.562;10.038;2023-04-28T02:39:25;4.90;;;4.43;;
29940;SDS011;16801;53.562;10.038;2023-04-28T02:42:49;4.37;;;3.03;;
29940;SDS011;16801;53.562;10.038;2023-04-28T02:46:10;6.03;;;5.43;;
29940;SDS011;16801;53.562;10.038;2023-04-28T02:49:32;5.13;;;4.43;;
29940;SDS011;16801;53.562;10.038;2023-04-28T02:52:54;4.70;;;3.60;;
29940;SDS011;16801;53.562;10.038;2023-04-28T02:56:15;4.40;;;3.30;;
29940;SDS011;16801;53.562;10.038;2023-04-28T02:59:36;3.93;;;3.53;;
29940;SDS011;16801;53.562;10.038;2023-04-28T03:02:56;6.20;;;4.80;;
29940;SDS011;16801;53.562;10.038;2023-04-28T03:06:18;4.70;;;3.93;;
29940;SDS011;16801;53.562;10.038;2023-04-28T03:09:39;7.77;;;5.83;;
29940;SDS011;16801;53.562;10.038;2023-04-28T03:13:00;5.57;;;4.93;;
29940;SDS011;16801;53.562;10.038;2023-04-28T03:16:22;6.97;;;3.47;;
29940;SDS011;16801;53.562;10.038;2023-04-28T03:19:43;5.20;;;3.60;;
29940;SDS011;16801;53.562;10.038;2023-04-28T03:23:06;3.77;;;3.47;;
29940;SDS011;16801;53.562;10.038;2023-04-28T03:26:27;4.37;;;3.97;;
29940;SDS011;16801;53.562;10.038;2023-04-28T03:29:48;4.33;;;3.93;;
29940;SDS011;16801;53.562;10.038;2023-04-28T03:33:09;5.03;;;4.57;;
29940;SDS011;16801;53.562;10.038;2023-04-28T03:36:30;3.60;;;3.30;;
29940;SDS011;16801;53.562;10.038;2023-04-28T03:40:00;6.13;;;3.47;;
29940;SDS011;16801;53.562;10.038;2023-04-28T03:43:28;4.47;;;4.07;;
29940;SDS011;16801;53.562;10.038;2023-04-28T03:47:18;4.70;;;4.30;;
29940;SDS011;16801;53.562;10.038;2023-04-28T03:50:40;4.23;;;3.80;;
29940;SDS011;16801;53.562;10.038;2023-04-28T03:54:02;5.60;;;4.60;;
29940;SDS011;16801;53.562;10.038;2023-04-28T03:57:24;8.23;;;3.83;;
29940;SDS011;16801;53.562;10.038;2023-04-28T04:00:45;6.53;;;4.07;;
29940;SDS011;16801;53.562;10.038;2023-04-28T04:04:06;4.83;;;3.80;;
29940;SDS011;16801;53.562;10.038;2023-04-28T04:07:27;16.73;;;12.50;;
29940;SDS011;16801;53.562;10.038;2023-04-28T04:10:50;25.30;;;18.97;;
29940;SDS011;16801;53.562;10.038;2023-04-28T04:14:14;14.93;;;12.07;;
29940;SDS011;16801;53.562;10.038;2023-04-28T04:17:35;6.67;;;4.77;;
29940;SDS011;16801;53.562;10.038;2023-04-28T04:20:57;7.30;;;3.50;;
29940;SDS011;16801;53.562;10.038;2023-04-28T04:24:18;4.37;;;3.67;;
29940;SDS011;16801;53.562;10.038;2023-04-28T04:27:38;3.57;;;2.60;;
29940;SDS011;16801;53.562;10.038;2023-04-28T04:31:01;5.53;;;3.53;;
29940;SDS011;16801;53.562;10.038;2023-04-28T04:34:22;4.70;;;3.67;;
29940;SDS011;16801;53.562;10.038;2023-04-28T04:37:44;3.07;;;2.57;;
29940;SDS011;16801;53.562;10.038;2023-04-28T04:41:04;4.77;;;3.17;;
29940;SDS011;16801;53.562;10.038;2023-04-28T04:44:25;3.47;;;2.87;;
29940;SDS011;16801;53.562;10.038;2023-04-28T04:47:48;4.03;;;3.63;;
29940;SDS011;16801;53.562;10.038;2023-04-28T04:51:09;4.50;;;3.27;;
29940;SDS011;16801;53.562;10.038;2023-04-28T04:54:31;5.37;;;3.63;;
29940;SDS011;16801;53.562;10.038;2023-04-28T04:57:57;3.30;;;2.43;;
29940;SDS011;16801;53.562;10.038;2023-04-28T05:01:19;4.53;;;3.40;;
29940;SDS011;16801;53.562;10.038;2023-04-28T05:04:41;3.37;;;2.33;;
29940;SDS011;16801;53.562;10.038;2023-04-28T05:08:04;4.70;;;3.50;;
29940;SDS011;16801;53.562;10.038;2023-04-28T05:11:25;3.97;;;3.20;;
29940;SDS011;16801;53.562;10.038;2023-04-28T05:14:45;4.07;;;2.77;;
29940;SDS011;16801;53.562;10.038;2023-04-28T05:18:07;4.70;;;4.17;;
29940;SDS011;16801;53.562;10.038;2023-04-28T05:21:31;4.33;;;3.13;;
29940;SDS011;16801;53.562;10.038;2023-04-28T05:24:52;4.53;;;2.80;;
29940;SDS011;16801;53.562;10.038;2023-04-28T05:28:14;3.17;;;2.87;;
29940;SDS011;16801;53.562;10.038;2023-04-28T05:31:36;3.93;;;2.07;;
29940;SDS011;16801;53.562;10.038;2023-04-28T05:34:57;5.63;;;3.97;;
29940;SDS011;16801;53.562;10.038;2023-04-28T05:38:19;4.10;;;2.73;;
29940;SDS011;16801;53.562;10.038;2023-04-28T05:41:41;3.73;;;2.40;;
29940;SDS011;16801;53.562;10.038;2023-04-28T05:45:02;2.60;;;2.37;;
29940;SDS011;16801;53.562;10.038;2023-04-28T05:48:24;3.77;;;2.60;;
29940;SDS011;16801;53.562;10.038;2023-04-28T05:51:45;4.43;;;2.57;;
29940;SDS011;16801;53.562;10.038;2023-04-28T05:55:07;3.10;;;2.60;;
29940;SDS011;16801;53.562;10.038;2023-04-28T05:58:29;3.17;;;2.90;;
29940;SDS011;16801;53.562;10.038;2023-04-28T06:01:51;4.27;;;2.43;;
29940;SDS011;16801;53.562;10.038;2023-04-28T06:05:12;3.77;;;2.40;;
29940;SDS011;16801;53.562;10.038;2023-04-28T06:08:33;2.67;;;2.47;;
29940;SDS011;16801;53.562;10.038;2023-04-28T06:11:58;3.63;;;2.60;;
29940;SDS011;16801;53.562;10.038;2023-04-28T06:15:19;8.27;;;4.67;;
29940;SDS011;16801;53.562;10.038;2023-04-28T06:18:40;2.93;;;2.70;;
29940;SDS011;16801;53.562;10.038;2023-04-28T06:22:01;2.30;;;1.77;;
29940;SDS011;16801;53.562;10.038;2023-04-28T06:25:22;2.30;;;2.20;;
29940;SDS011;16801;53.562;10.038;2023-04-28T06:28:44;1.90;;;1.70;;
29940;SDS011;16801;53.562;10.038;2023-04-28T06:32:06;3.20;;;2.43;;
29940;SDS011;16801;53.562;10.038;2023-04-28T06:35:27;2.40;;;2.20;;
29940;SDS011;16801;53.562;10.038;2023-04-28T06:38:47;6.37;;;3.03;;
29940;SDS011;16801;53.562;10.038;2023-04-28T06:42:08;4.83;;;2.50;;
29940;SDS011;16801;53.562;10.038;2023-04-28T06:45:36;2.20;;;1.93;;
29940;SDS011;16801;53.562;10.038;2023-04-28T06:48:57;2.37;;;2.13;;
29940;SDS011;16801;53.562;10.038;2023-04-28T06:52:18;2.00;;;1.90;;
29940;SDS011;16801;53.562;10.038;2023-04-28T06:55:41;7.37;;;2.53;;
29940;SDS011;16801;53.562;10.038;2023-04-28T06:59:02;2.63;;;2.43;;
29940;SDS011;16801;53.562;10.038;2023-04-28T07:02:24;2.23;;;2.03;;
29940;SDS011;16801;53.562;10.038;2023-04-28T07:05:45;4.03;;;3.37;;
29940;SDS011;16801;53.562;10.038;2023-04-28T07:09:07;2.80;;;1.40;;
29940;SDS011;16801;53.562;10.038;2023-04-28T07:12:28;2.00;;;1.60;;
29940;SDS011;16801;53.562;10.038;2023-04-28T07:15:49;6.97;;;2.50;;
29940;SDS011;16801;53.562;10.038;2023-04-28T07:19:12;1.97;;;1.70;;
29940;SDS011;16801;53.562;10.038;2023-04-28T07:22:32;2.10;;;1.87;;
29940;SDS011;16801;53.562;10.038;2023-04-28T07:25:53;2.00;;;1.90;;
29940;SDS011;16801;53.562;10.038;2023-04-28T07:29:14;2.70;;;2.50;;
29940;SDS011;16801;53.562;10.038;2023-04-28T07:32:35;3.17;;;1.97;;
29940;SDS011;16801;53.562;10.038;2023-04-28T07:35:57;2.53;;;2.33;;
29940;SDS011;16801;53.562;10.038;2023-04-28T07:39:18;3.20;;;2.40;;
29940;SDS011;16801;53.562;10.038;2023-04-28T07:42:39;5.13;;;2.30;;
29940;SDS011;16801;53.562;10.038;2023-04-28T07:46:00;2.30;;;2.10;;
29940;SDS011;16801;53.562;10.038;2023-04-28T07:49:21;1.97;;;1.70;;
29940;SDS011;16801;53.562;10.038;2023-04-28T07:52:43;3.83;;;1.40;;
29940;SDS011;16801;53.562;10.038;2023-04-28T07:56:04;4.60;;;1.90;;
29940;SDS011;16801;53.562;10.038;2023-04-28T07:59:25;3.27;;;1.67;;
29940;SDS011;16801;53.562;10.038;2023-04-28T08:02:46;3.23;;;2.23;;
29940;SDS011;16801;53.562;10.038;2023-04-28T08:06:07;3.63;;;2.23;;
29940;SDS011;16801;53.562;10.038;2023-04-28T08:09:29;1.53;;;1.43;;
29940;SDS011;16801;53.562;10.038;2023-04-28T08:12:50;1.67;;;1.50;;
29940;SDS011;16801;53.562;10.038;2023-04-28T08:16:12;1.67;;;1.57;;
29940;SDS011;16801;53.562;10.038;2023-04-28T08:19:33;3.43;;;2.37;;
29940;SDS011;16801;53.562;10.038;2023-04-28T08:22:54;4.63;;;2.53;;
29940;SDS011;16801;53.562;10.038;2023-04-28T08:26:16;3.87;;;2.83;;
29940;SDS011;16801;53.562;10.038;2023-04-28T08:29:37;2.20;;;2.00;;
29940;SDS011;16801;53.562;10.038;2023-04-28T08:32:58;3.73;;;1.50;;
29940;SDS011;16801;53.562;10.038;2023-04-28T08:36:19;1.50;;;1.40;;
29940;SDS011;16801;53.562;10.038;2023-04-28T08:39:41;1.77;;;1.43;;
29940;SDS011;16801;53.562;10.038;2023-04-28T08:43:04;3.83;;;1.83;;
29940;SDS011;16801;53.562;10.038;2023-04-28T08:46:26;1.93;;;1.70;;
29940;SDS011;16801;53.562;10.038;2023-04-28T08:49:47;4.60;;;2.77;;
29940;SDS011;16801;53.562;10.038;2023-04-28T08:53:08;5.23;;;2.17;;
29940;SDS011;16801;53.562;10.038;2023-04-28T08:56:32;3.53;;;2.07;;
29940;SDS011;16801;53.562;10.038;2023-04-28T08:59:54;2.63;;;2.43;;
29940;SDS011;16801;53.562;10.038;2023-04-28T09:03:15;3.37;;;2.07;;
29940;SDS011;16801;53.562;10.038;2023-04-28T09:06:37;2.33;;;2.00;;
29940;SDS011;16801;53.562;10.038;2023-04-28T09:10:14;2.00;;;1.73;;
29940;SDS011;16801;53.562;10.038;2023-04-28T09:13:36;2.10;;;1.90;;
29940;SDS011;16801;53.562;10.038;2023-04-28T09:16:59;2.50;;;1.70;;
29940;SDS011;16801;53.562;10.038;2023-04-28T09:20:21;3.37;;;1.87;;
29940;SDS011;16801;53.562;10.038;2023-04-28T09:23:45;2.57;;;1.90;;
29940;SDS011;16801;53.562;10.038;2023-04-28T09:27:07;2.90;;;2.33;;
29940;SDS011;16801;53.562;10.038;2023-04-28T09:30:39;3.47;;;3.17;;
29940;SDS011;16801;53.562;10.038;2023-04-28T09:34:01;4.93;;;3.10;;
29940;SDS011;16801;53.562;10.038;2023-04-28T09:37:23;2.27;;;2.17;;
29940;SDS011;16801;53.562;10.038;2023-04-28T09:40:49;2.47;;;2.27;;
29940;SDS011;16801;53.562;10.038;2023-04-28T09:44:12;3.03;;;2.80;;
29940;SDS011;16801;53.562;10.038;2023-04-28T09:47:34;2.37;;;2.17;;
29940;SDS011;16801;53.562;10.038;2023-04-28T09:50:58;3.97;;;2.10;;
29940;SDS011;16801;53.562;10.038;2023-04-28T09:54:21;2.00;;;1.80;;
29940;SDS011;16801;53.562;10.038;2023-04-28T09:57:44;3.27;;;2.70;;
29940;SDS011;16801;53.562;10.038;2023-04-28T10:01:09;2.03;;;1.47;;
29940;SDS011;16801;53.562;10.038;2023-04-28T10:04:30;2.40;;;1.80;;
29940;SDS011;16801;53.562;10.038;2023-04-28T10:07:53;2.50;;;1.80;;
29940;SDS011;16801;53.562;10.038;2023-04-28T10:11:14;3.13;;;2.07;;
29940;SDS011;16801;53.562;10.038;2023-04-28T10:14:35;1.87;;;1.73;;
29940;SDS011;16801;53.562;10.038;2023-04-28T10:17:56;3.73;;;1.90;;
29940;SDS011;16801;53.562;10.038;2023-04-28T10:21:19;2.90;;;2.07;;
29940;SDS011;16801;53.562;10.038;2023-04-28T10:24:48;4.30;;;1.90;;
29940;SDS011;16801;53.562;10.038;2023-04-28T10:28:26;3.00;;;2.60;;
29940;SDS011;16801;53.562;10.038;2023-04-28T10:35:40;4.07;;;1.80;;
29940;SDS011;16801;53.562;10.038;2023-04-28T10:39:09;4.70;;;3.70;;
29940;SDS011;16801;53.562;10.038;2023-04-28T10:42:51;3.43;;;2.50;;
29940;SDS011;16801;53.562;10.038;2023-04-28T10:46:12;1.93;;;1.83;;
29940;SDS011;16801;53.562;10.038;2023-04-28T10:57:22;2.60;;;1.90;;
29940;SDS011;16801;53.562;10.038;2023-04-28T11:00:44;4.03;;;2.73;;
29940;SDS011;16801;53.562;10.038;2023-04-28T11:04:07;2.63;;;2.43;;
29940;SDS011;16801;53.562;10.038;2023-04-28T11:07:31;9.33;;;3.27;;
29940;SDS011;16801;53.562;10.038;2023-04-28T11:14:37;3.73;;;3.33;;
29940;SDS011;16801;53.562;10.038;2023-04-28T11:17:59;2.20;;;1.97;;
29940;SDS011;16801;53.562;10.038;2023-04-28T11:21:23;1.50;;;1.40;;
29940;SDS011;16801;53.562;10.038;2023-04-28T11:24:53;3.40;;;2.00;;
29940;SDS011;16801;53.562;10.038;2023-04-28T11:28:16;2.60;;;2.10;;
29940;SDS011;16801;53.562;10.038;2023-04-28T11:31:37;6.63;;;2.33;;
29940;SDS011;16801;53.562;10.038;2023-04-28T11:35:00;9.37;;;2.57;;
29940;SDS011;16801;53.562;10.038;2023-04-28T11:38:23;3.67;;;3.00;;
29940;SDS011;16801;53.562;10.038;2023-04-28T11:41:43;2.27;;;2.07;;
29940;SDS011;16801;53.562;10.038;2023-04-28T11:45:05;2.63;;;2.07;;
29940;SDS011;16801;53.562;10.038;2023-04-28T11:48:32;3.20;;;2.27;;
29940;SDS011;16801;53.562;10.038;2023-04-28T11:51:54;2.67;;;2.20;;
29940;SDS011;16801;53.562;10.038;2023-04-28T11:55:18;2.23;;;1.93;;
29940;SDS011;16801;53.562;10.038;2023-04-28T11:58:39;2.73;;;1.70;;
29940;SDS011;16801;53.562;10.038;2023-04-28T12:02:00;6.37;;;3.00;;
29940;SDS011;16801;53.562;10.038;2023-04-28T12:05:22;2.20;;;2.00;;
29940;SDS011;16801;53.562;10.038;2023-04-28T12:08:44;3.00;;;2.30;;
29940;SDS011;16801;53.562;10.038;2023-04-28T12:12:05;3.10;;;2.83;;
29940;SDS011;16801;53.562;10.038;2023-04-28T12:15:38;5.43;;;2.60;;
29940;SDS011;16801;53.562;10.038;2023-04-28T12:19:00;3.63;;;2.60;;
29940;SDS011;16801;53.562;10.038;2023-04-28T12:22:25;2.23;;;1.93;;
29940;SDS011;16801;53.562;10.038;2023-04-28T12:25:47;5.23;;;3.40;;
29940;SDS011;16801;53.562;10.038;2023-04-28T12:29:08;3.27;;;2.43;;
29940;SDS011;16801;53.562;10.038;2023-04-28T12:32:36;5.30;;;2.90;;
29940;SDS011;16801;53.562;10.038;2023-04-28T12:35:58;4.37;;;2.37;;
29940;SDS011;16801;53.562;10.038;2023-04-28T12:39:19;3.77;;;2.67;;
29940;SDS011;16801;53.562;10.038;2023-04-28T12:42:42;4.30;;;2.20;;
29940;SDS011;16801;53.562;10.038;2023-04-28T12:46:03;4.23;;;3.10;;
29940;SDS011;16801;53.562;10.038;2023-04-28T12:49:26;3.00;;;2.53;;
29940;SDS011;16801;53.562;10.038;2023-04-28T12:52:47;3.23;;;3.03;;
29940;SDS011;16801;53.562;10.038;2023-04-28T12:56:08;4.17;;;2.77;;
29940;SDS011;16801;53.562;10.038;2023-04-28T12:59:30;2.87;;;2.43;;
29940;SDS011;16801;53.562;10.038;2023-04-28T13:02:51;2.43;;;2.23;;
29940;SDS011;16801;53.562;10.038;2023-04-28T13:06:12;3.63;;;3.33;;
29940;SDS011;16801;53.562;10.038;2023-04-28T13:09:34;3.77;;;2.77;;
29940;SDS011;16801;53.562;10.038;2023-04-28T13:12:56;3.57;;;3.20;;
29940;SDS011;16801;53.562;10.038;2023-04-28T13:16:18;2.80;;;2.57;;
29940;SDS011;16801;53.562;10.038;2023-04-28T13:19:39;3.80;;;2.13;;
29940;SDS011;16801;53.562;10.038;2023-04-28T13:23:00;4.43;;;4.03;;
29940;SDS011;16801;53.562;10.038;2023-04-28T13:26:22;8.23;;;4.30;;
29940;SDS011;16801;53.562;10.038;2023-04-28T13:29:43;3.90;;;3.00;;
29940;SDS011;16801;53.562;10.038;2023-04-28T13:33:05;3.80;;;3.27;;
29940;SDS011;16801;53.562;10.038;2023-04-28T13:36:26;2.83;;;2.23;;
29940;SDS011;16801;53.562;10.038;2023-04-28T13:39:48;3.20;;;2.90;;
29940;SDS011;16801;53.562;10.038;2023-04-28T13:43:09;3.17;;;2.87;;
29940;SDS011;16801;53.562;10.038;2023-04-28T13:46:30;4.50;;;3.97;;
29940;SDS011;16801;53.562;10.038;2023-04-28T13:49:52;8.07;;;4.13;;
29940;SDS011;16801;53.562;10.038;2023-04-28T13:53:14;6.93;;;3.83;;
29940;SDS011;16801;53.562;10.038;2023-04-28T13:56:35;6.83;;;4.00;;
29940;SDS011;16801;53.562;10.038;2023-04-28T13:59:57;3.47;;;3.17;;
29940;SDS011;16801;53.562;10.038;2023-04-28T14:03:17;3.03;;;2.80;;
29940;SDS011;16801;53.562;10.038;2023-04-28T14:06:41;2.73;;;2.53;;
29940;SDS011;16801;53.562;10.038;2023-04-28T14:10:02;4.87;;;2.93;;
29940;SDS011;16801;53.562;10.038;2023-04-28T14:13:24;5.37;;;3.50;;
29940;SDS011;16801;53.562;10.038;2023-04-28T14:16:46;4.20;;;3.07;;
29940;SDS011;16801;53.562;10.038;2023-04-28T14:20:07;2.80;;;2.60;;
29940;SDS011;16801;53.562;10.038;2023-04-28T14:23:31;6.90;;;3.77;;
29940;SDS011;16801;53.562;10.038;2023-04-28T14:26:52;4.67;;;3.80;;
29940;SDS011;16801;53.562;10.038;2023-04-28T14:30:13;5.37;;;3.13;;
29940;SDS011;16801;53.562;10.038;2023-04-28T14:33:33;5.10;;;4.60;;
29940;SDS011;16801;53.562;10.038;2023-04-28T14:36:54;5.17;;;3.70;;
29940;SDS011;16801;53.562;10.038;2023-04-28T14:40:16;4.77;;;3.60;;
29940;SDS011;16801;53.562;10.038;2023-04-28T14:43:37;3.93;;;3.40;;
29940;SDS011;16801;53.562;10.038;2023-04-28T14:46:59;4.03;;;2.83;;
29940;SDS011;16801;53.562;10.038;2023-04-28T14:50:20;4.67;;;3.40;;
29940;SDS011;16801;53.562;10.038;2023-04-28T14:53:41;6.13;;;4.03;;
29940;SDS011;16801;53.562;10.038;2023-04-28T14:57:03;4.97;;;3.80;;
29940;SDS011;16801;53.562;10.038;2023-04-28T15:00:25;4.13;;;3.63;;
29940;SDS011;16801;53.562;10.038;2023-04-28T15:03:46;6.33;;;4.63;;
29940;SDS011;16801;53.562;10.038;2023-04-28T15:07:07;4.47;;;4.07;;
29940;SDS011;16801;53.562;10.038;2023-04-28T15:10:30;5.97;;;5.03;;
29940;SDS011;16801;53.562;10.038;2023-04-28T15:13:58;4.20;;;3.77;;
29940;SDS011;16801;53.562;10.038;2023-04-28T15:17:19;4.97;;;3.67;;
29940;SDS011;16801;53.562;10.038;2023-04-28T15:20:41;4.10;;;3.27;;
29940;SDS011;16801;53.562;10.038;2023-04-28T15:24:02;4.93;;;4.00;;
29940;SDS011;16801;53.562;10.038;2023-04-28T15:27:23;6.43;;;3.97;;
29940;SDS011;16801;53.562;10.038;2023-04-28T15:30:45;3.60;;;3.30;;
29940;SDS011;16801;53.562;10.038;2023-04-28T15:34:06;5.27;;;4.47;;
29940;SDS011;16801;53.562;10.038;2023-04-28T15:37:37;3.50;;;3.20;;
29940;SDS011;16801;53.562;10.038;2023-04-28T15:41:01;7.83;;;4.80;;
29940;SDS011;16801;53.562;10.038;2023-04-28T15:44:21;3.97;;;3.33;;
29940;SDS011;16801;53.562;10.038;2023-04-28T15:47:44;5.77;;;4.57;;
29940;SDS011;16801;53.562;10.038;2023-04-28T15:51:06;3.73;;;3.27;;
29940;SDS011;16801;53.562;10.038;2023-04-28T15:54:27;5.53;;;4.17;;
29940;SDS011;16801;53.562;10.038;2023-04-28T15:57:49;6.03;;;4.77;;
29940;SDS011;16801;53.562;10.038;2023-04-28T16:01:10;6.73;;;4.63;;
29940;SDS011;16801;53.562;10.038;2023-04-28T16:04:33;5.07;;;3.60;;
29940;SDS011;16801;53.562;10.038;2023-04-28T16:07:54;16.53;;;3.63;;
29940;SDS011;16801;53.562;10.038;2023-04-28T16:11:15;6.40;;;4.67;;
29940;SDS011;16801;53.562;10.038;2023-04-28T16:14:38;4.70;;;3.87;;
29940;SDS011;16801;53.562;10.038;2023-04-28T16:17:59;5.77;;;4.73;;
29940;SDS011;16801;53.562;10.038;2023-04-28T16:21:21;5.53;;;4.00;;
29940;SDS011;16801;53.562;10.038;2023-04-28T16:24:42;5.40;;;3.23;;
29940;SDS011;16801;53.562;10.038;2023-04-28T16:28:04;5.50;;;4.00;;
29940;SDS011;16801;53.562;10.038;2023-04-28T16:31:25;7.67;;;3.77;;
29940;SDS011;16801;53.562;10.038;2023-04-28T16:34:46;3.40;;;3.00;;
29940;SDS011;16801;53.562;10.038;2023-04-28T16:38:08;4.97;;;3.50;;
29940;SDS011;16801;53.562;10.038;2023-04-28T16:41:31;3.30;;;3.10;;
29940;SDS011;16801;53.562;10.038;2023-04-28T16:44:52;5.43;;;4.53;;
29940;SDS011;16801;53.562;10.038;2023-04-28T16:48:13;4.40;;;3.43;;
29940;SDS011;16801;53.562;10.038;2023-04-28T16:51:35;3.63;;;3.30;;
29940;SDS011;16801;53.562;10.038;2023-04-28T16:54:58;6.60;;;4.90;;
29940;SDS011;16801;53.562;10.038;2023-04-28T16:58:18;6.40;;;3.40;;
29940;SDS011;16801;53.562;10.038;2023-04-28T17:01:39;6.80;;;3.73;;
29940;SDS011;16801;53.562;10.038;2023-04-28T17:05:01;7.77;;;4.70;;
29940;SDS011;16801;53.562;10.038;2023-04-28T17:08:22;6.47;;;5.70;;
29940;SDS011;16801;53.562;10.038;2023-04-28T17:11:44;5.60;;;4.70;;
29940;SDS011;16801;53.562;10.038;2023-04-28T17:15:06;5.33;;;4.70;;
29940;SDS011;16801;53.562;10.038;2023-04-28T17:18:27;4.27;;;3.83;;
29940;SDS011;16801;53.562;10.038;2023-04-28T17:21:49;7.27;;;5.27;;
29940;SDS011;16801;53.562;10.038;2023-04-28T17:25:11;7.30;;;4.70;;
29940;SDS011;16801;53.562;10.038;2023-04-28T17:28:34;6.63;;;4.77;;
29940;SDS011;16801;53.562;10.038;2023-04-28T17:31:54;5.73;;;5.03;;
29940;SDS011;16801;53.562;10.038;2023-04-28T17:35:15;5.20;;;4.73;;
29940;SDS011;16801;53.562;10.038;2023-04-28T17:38:36;4.77;;;4.00;;
29940;SDS011;16801;53.562;10.038;2023-04-28T17:41:58;6.73;;;5.40;;
29940;SDS011;16801;53.562;10.038;2023-04-28T17:45:22;5.87;;;5.20;;
29940;SDS011;16801;53.562;10.038;2023-04-28T17:48:42;11.43;;;6.57;;
29940;SDS011;16801;53.562;10.038;2023-04-28T17:52:03;4.60;;;4.20;;
29940;SDS011;16801;53.562;10.038;2023-04-28T17:55:24;9.57;;;4.70;;
29940;SDS011;16801;53.562;10.038;2023-04-28T17:58:45;6.57;;;5.43;;
29940;SDS011;16801;53.562;10.038;2023-04-28T18:02:07;6.30;;;5.50;;
29940;SDS011;16801;53.562;10.038;2023-04-28T18:05:29;8.93;;;6.30;;
29940;SDS011;16801;53.562;10.038;2023-04-28T18:08:50;8.77;;;5.70;;
29940;SDS011;16801;53.562;10.038;2023-04-28T18:12:11;7.23;;;5.73;;
29940;SDS011;16801;53.562;10.038;2023-04-28T18:15:31;6.47;;;5.87;;
29940;SDS011;16801;53.562;10.038;2023-04-28T18:18:53;6.23;;;5.63;;
29940;SDS011;16801;53.562;10.038;2023-04-28T18:22:14;9.83;;;6.13;;
29940;SDS011;16801;53.562;10.038;2023-04-28T18:25:36;6.47;;;5.53;;
29940;SDS011;16801;53.562;10.038;2023-04-28T18:28:57;9.97;;;6.10;;
29940;SDS011;16801;53.562;10.038;2023-04-28T18:32:18;6.60;;;5.90;;
29940;SDS011;16801;53.562;10.038;2023-04-28T18:35:40;6.70;;;5.70;;
29940;SDS011;16801;53.562;10.038;2023-04-28T18:39:01;6.53;;;5.30;;
29940;SDS011;16801;53.562;10.038;2023-04-28T18:42:23;6.60;;;6.00;;
29940;SDS011;16801;53.562;10.038;2023-04-28T18:45:45;7.47;;;6.03;;
29940;SDS011;16801;53.562;10.038;2023-04-28T18:49:06;6.63;;;6.03;;
29940;SDS011;16801;53.562;10.038;2023-04-28T18:52:29;7.70;;;6.37;;
29940;SDS011;16801;53.562;10.038;2023-04-28T18:55:51;9.63;;;7.27;;
29940;SDS011;16801;53.562;10.038;2023-04-28T18:59:12;8.30;;;6.37;;
29940;SDS011;16801;53.562;10.038;2023-04-28T19:02:33;7.93;;;7.23;;
29940;SDS011;16801;53.562;10.038;2023-04-28T19:05:54;11.83;;;7.97;;
29940;SDS011;16801;53.562;10.038;2023-04-28T19:09:16;9.07;;;6.97;;
29940;SDS011;16801;53.562;10.038;2023-04-28T19:12:37;6.33;;;5.73;;
29940;SDS011;16801;53.562;10.038;2023-04-28T19:15:58;8.23;;;6.93;;
29940;SDS011;16801;53.562;10.038;2023-04-28T19:19:19;9.33;;;7.47;;
29940;SDS011;16801;53.562;10.038;2023-04-28T19:22:39;6.93;;;6.20;;
29940;SDS011;16801;53.562;10.038;2023-04-28T19:26:03;12.77;;;8.03;;
29940;SDS011;16801;53.562;10.038;2023-04-28T19:29:24;9.17;;;6.80;;
29940;SDS011;16801;53.562;10.038;2023-04-28T19:32:45;9.50;;;7.10;;
29940;SDS011;16801;53.562;10.038;2023-04-28T19:36:06;12.50;;;8.63;;
29940;SDS011;16801;53.562;10.038;2023-04-28T19:39:27;9.23;;;6.77;;
29940;SDS011;16801;53.562;10.038;2023-04-28T19:42:50;11.60;;;7.40;;
29940;SDS011;16801;53.562;10.038;2023-04-28T19:46:10;9.80;;;6.37;;
29940;SDS011;16801;53.562;10.038;2023-04-28T19:49:31;7.50;;;6.57;;
29940;SDS011;16801;53.562;10.038;2023-04-28T19:52:53;7.50;;;5.53;;
29940;SDS011;16801;53.562;10.038;2023-04-28T19:56:14;10.20;;;6.80;;
29940;SDS011;16801;53.562;10.038;2023-04-28T19:59:39;9.87;;;7.90;;
29940;SDS011;16801;53.562;10.038;2023-04-28T20:03:09;9.57;;;7.03;;
29940;SDS011;16801;53.562;10.038;2023-04-28T20:06:32;11.00;;;7.23;;
29940;SDS011;16801;53.562;10.038;2023-04-28T20:09:53;8.50;;;6.50;;
29940;SDS011;16801;53.562;10.038;2023-04-28T20:13:14;6.67;;;6.07;;